Time;durP1;ratioP1;P1;durP2;ratioP2;P2;SDS_P1;SDS_P2;PMS_P1;PMS_P2;Temp;Humidity;BMP_temperature;BMP_pressure;BME280_temperature;BME280_humidity;BME280_pressure;Samples;Min_cycle;Max_cycle;Signal;HPM_P1;HPM_P2
2021/05/12 00:01:33;;;;;;;29.63;26.50;;;;;;;;;;5070672;28;20678;-72
2021/05/12 00:04:18;;;;;;;26.93;24.37;;;;;;;;;;5070816;28;20222;-72
2021/05/12 00:07:09;;;;;;;26.27;23.77;;;;;;;;;;5070898;28;20253;-72
2021/05/12 00:09:56;;;;;;;27.50;24.70;;;;;;;;;;5070340;28;20414;-72
2021/05/12 00:12:41;;;;;;;26.07;23.23;;;;;;;;;;5070218;28;20248;-72
2021/05/12 00:15:28;;;;;;;26.87;24.27;;;;;;;;;;5070793;28;20208;-72
2021/05/12 00:18:15;;;;;;;26.97;24.17;;;;;;;;;;5070822;28;20210;-72
2021/05/12 00:21:10;;;;;;;28.20;25.00;;;;;;;;;;5070235;28;20687;-72
2021/05/12 00:23:58;;;;;;;26.70;24.17;;;;;;;;;;5070393;28;20304;-72
2021/05/12 00:26:44;;;;;;;32.35;29.45;;;;;;;;;;5070156;28;20415;-72
2021/05/12 00:29:31;;;;;;;28.93;25.93;;;;;;;;;;5070159;28;20226;-72
2021/05/12 00:32:18;;;;;;;27.43;24.87;;;;;;;;;;5070327;28;20661;-72
2021/05/12 00:35:04;;;;;;;27.27;24.57;;;;;;;;;;5070456;28;20619;-72
2021/05/12 00:37:51;;;;;;;27.10;24.30;;;;;;;;;;5070448;28;20283;-72
2021/05/12 00:40:36;;;;;;;26.90;24.10;;;;;;;;;;5070082;28;20211;-72
2021/05/12 00:43:21;;;;;;;27.00;24.20;;;;;;;;;;5070378;28;20281;-72
2021/05/12 00:46:07;;;;;;;25.77;23.07;;;;;;;;;;5070403;28;20230;-72
2021/05/12 00:48:52;;;;;;;25.40;22.60;;;;;;;;;;5070546;28;20223;-72
2021/05/12 00:51:40;;;;;;;25.50;22.80;;;;;;;;;;5070444;28;20683;-72
2021/05/12 00:54:25;;;;;;;27.90;22.87;;;;;;;;;;5070434;28;20627;-72
2021/05/12 00:57:12;;;;;;;25.27;22.77;;;;;;;;;;5071471;28;20713;-72
2021/05/12 00:59:58;;;;;;;28.10;25.20;;;;;;;;;;5073423;28;20462;-72
2021/05/12 01:02:43;;;;;;;27.03;24.33;;;;;;;;;;5074049;28;20464;-72
2021/05/12 01:05:29;;;;;;;25.20;22.67;;;;;;;;;;5073955;28;20200;-72
2021/05/12 01:08:24;;;;;;;25.27;22.80;;;;;;;;;;5073693;28;20236;-72
2021/05/12 01:11:08;;;;;;;29.67;25.70;;;;;;;;;;5073523;28;20677;-72
2021/05/12 01:13:53;;;;;;;29.27;26.30;;;;;;;;;;5073424;28;20235;-72
2021/05/12 01:16:42;;;;;;;35.93;32.10;;;;;;;;;;5073154;28;20544;-72
2021/05/12 01:19:30;;;;;;;32.07;27.47;;;;;;;;;;5073352;28;20281;-72
2021/05/12 01:22:18;;;;;;;29.60;26.37;;;;;;;;;;5073430;28;20235;-72
2021/05/12 01:25:02;;;;;;;29.57;26.33;;;;;;;;;;5073853;28;20209;-72
2021/05/12 01:27:51;;;;;;;28.60;25.53;;;;;;;;;;5073774;28;20247;-72
2021/05/12 01:30:36;;;;;;;30.80;25.87;;;;;;;;;;5072997;28;20590;-72
2021/05/12 01:33:21;;;;;;;27.93;24.40;;;;;;;;;;5073493;28;20238;-72
2021/05/12 01:36:06;;;;;;;29.10;25.70;;;;;;;;;;5073882;28;20244;-72
2021/05/12 01:38:54;;;;;;;27.80;25.00;;;;;;;;;;5073693;28;20202;-72
2021/05/12 01:41:39;;;;;;;27.80;24.90;;;;;;;;;;5073079;28;20202;-72
2021/05/12 01:44:26;;;;;;;27.87;24.87;;;;;;;;;;5073201;28;20228;-72
2021/05/12 01:47:10;;;;;;;27.37;24.43;;;;;;;;;;5073515;28;20213;-72
2021/05/12 01:50:00;;;;;;;27.63;24.73;;;;;;;;;;5072576;28;20196;-72
2021/05/12 01:52:45;;;;;;;26.47;23.70;;;;;;;;;;5072865;28;20309;-72
2021/05/12 01:55:30;;;;;;;28.03;24.40;;;;;;;;;;5073251;28;20756;-73
2021/05/12 01:58:15;;;;;;;26.03;23.00;;;;;;;;;;5073160;28;20198;-72
2021/05/12 02:01:01;;;;;;;28.20;25.23;;;;;;;;;;5072704;28;20254;-72
2021/05/12 02:03:46;;;;;;;30.92;26.45;;;;;;;;;;5072299;28;20489;-72
2021/05/12 02:06:30;;;;;;;29.27;23.73;;;;;;;;;;5073103;28;20204;-72
2021/05/12 02:09:15;;;;;;;26.63;23.77;;;;;;;;;;5072897;28;20246;-72
2021/05/12 02:12:00;;;;;;;27.23;22.80;;;;;;;;;;5072983;28;20288;-72
2021/05/12 02:14:44;;;;;;;28.13;22.63;;;;;;;;;;5073223;28;20724;-72
2021/05/12 02:17:29;;;;;;;25.70;23.00;;;;;;;;;;5073147;28;20207;-72
2021/05/12 02:20:14;;;;;;;24.90;21.73;;;;;;;;;;5072591;28;20748;-72
2021/05/12 02:22:59;;;;;;;28.27;22.73;;;;;;;;;;5073020;28;20584;-72
2021/05/12 02:25:44;;;;;;;24.63;22.03;;;;;;;;;;5072553;28;20695;-72
2021/05/12 02:28:30;;;;;;;24.93;22.30;;;;;;;;;;5072573;28;20202;-72
2021/05/12 02:31:15;;;;;;;24.50;21.57;;;;;;;;;;5071987;28;20215;-71
2021/05/12 02:33:59;;;;;;;25.67;21.73;;;;;;;;;;5072042;28;20241;-71
2021/05/12 02:36:44;;;;;;;27.70;22.67;;;;;;;;;;5072574;28;20210;-71
2021/05/12 02:39:31;;;;;;;29.35;26.38;;;;;;;;;;5070646;28;20407;-71
2021/05/12 02:42:18;;;;;;;25.23;22.83;;;;;;;;;;5072254;28;20227;-71
2021/05/12 02:45:07;;;;;;;25.00;22.43;;;;;;;;;;5072344;28;20219;-71
2021/05/12 02:47:58;;;;;;;24.77;22.27;;;;;;;;;;5071839;28;20582;-71
2021/05/12 02:50:45;;;;;;;26.43;22.00;;;;;;;;;;5071570;28;20240;-71
2021/05/12 02:53:29;;;;;;;29.85;26.75;;;;;;;;;;5071370;28;20442;-71
2021/05/12 02:56:14;;;;;;;26.73;23.73;;;;;;;;;;5071970;28;20686;-71
2021/05/12 02:58:59;;;;;;;26.03;22.80;;;;;;;;;;5072044;28;20666;-71
2021/05/12 03:01:45;;;;;;;26.17;23.53;;;;;;;;;;5071882;28;20205;-71
2021/05/12 03:04:30;;;;;;;27.03;23.97;;;;;;;;;;5071680;28;20721;-71
2021/05/12 03:07:17;;;;;;;26.90;24.07;;;;;;;;;;5072202;28;20260;-71
2021/05/12 03:10:04;;;;;;;26.60;23.67;;;;;;;;;;5071228;28;20310;-71
2021/05/12 03:12:49;;;;;;;28.33;24.57;;;;;;;;;;5071709;28;20303;-71
2021/05/12 03:15:38;;;;;;;27.57;23.93;;;;;;;;;;5071937;28;20208;-71
2021/05/12 03:18:26;;;;;;;28.20;25.13;;;;;;;;;;5071753;28;20235;-71
2021/05/12 03:21:15;;;;;;;28.53;24.10;;;;;;;;;;5070377;28;20636;-71
2021/05/12 03:24:00;;;;;;;27.47;24.77;;;;;;;;;;5071794;28;20241;-71
2021/05/12 03:26:45;;;;;;;28.23;23.83;;;;;;;;;;5071513;28;20277;-71
2021/05/12 03:29:35;;;;;;;28.13;25.17;;;;;;;;;;5070931;28;20202;-71
2021/05/12 03:32:23;;;;;;;29.20;26.10;;;;;;;;;;5070793;28;20229;-71
2021/05/12 03:35:20;;;;;;;30.03;26.83;;;;;;;;;;5071307;28;20298;-71
2021/05/12 03:41:10;;;;;;;34.03;27.07;;;;;;;;;;5070483;28;20200;-71
2021/05/12 03:43:54;;;;;;;32.63;29.07;;;;;;;;;;5070945;28;20655;-71
2021/05/12 03:46:39;;;;;;;30.80;27.50;;;;;;;;;;5071108;28;20605;-71
2021/05/12 03:49:24;;;;;;;33.10;27.37;;;;;;;;;;5070636;28;20625;-72
2021/05/12 03:52:09;;;;;;;29.70;26.47;;;;;;;;;;5071030;28;20263;-71
2021/05/12 03:54:56;;;;;;;30.40;26.10;;;;;;;;;;5070972;28;20206;-71
2021/05/12 03:57:41;;;;;;;30.27;27.17;;;;;;;;;;5071049;28;20259;-71
2021/05/12 04:00:31;;;;;;;29.80;24.97;;;;;;;;;;5070439;28;20201;-72
2021/05/12 04:03:18;;;;;;;31.10;25.90;;;;;;;;;;5070533;28;20302;-72
2021/05/12 04:06:03;;;;;;;29.17;24.90;;;;;;;;;;5070910;28;20741;-71
2021/05/12 04:08:51;;;;;;;29.03;24.53;;;;;;;;;;5071416;28;20684;-71
2021/05/12 04:11:35;;;;;;;26.43;23.60;;;;;;;;;;5070516;28;20196;-71
2021/05/12 04:14:19;;;;;;;24.93;22.47;;;;;;;;;;5070308;28;20233;-71
2021/05/12 04:17:06;;;;;;;31.33;28.13;;;;;;;;;;5070325;28;20609;-71
2021/05/12 04:19:54;;;;;;;27.90;24.30;;;;;;;;;;5070464;28;20197;-71
2021/05/12 04:22:39;;;;;;;27.53;23.80;;;;;;;;;;5071069;28;20220;-71
2021/05/12 04:25:27;;;;;;;24.67;21.43;;;;;;;;;;5070646;28;20598;-71
2021/05/12 04:28:23;;;;;;;25.77;22.07;;;;;;;;;;5070446;28;20200;-71
2021/05/12 04:31:14;;;;;;;25.20;22.35;;;;;;;;;;5069750;28;20513;-71
2021/05/12 04:34:02;;;;;;;24.73;22.13;;;;;;;;;;5063954;28;20602;-71
2021/05/12 04:36:48;;;;;;;27.90;22.40;;;;;;;;;;5064801;28;20573;-71
2021/05/12 04:39:33;;;;;;;23.63;20.87;;;;;;;;;;5055691;28;20224;-69
2021/05/12 04:42:19;;;;;;;22.23;19.87;;;;;;;;;;5053985;28;20207;-70
2021/05/12 04:45:10;;;;;;;25.47;21.30;;;;;;;;;;5071378;28;20283;-70
2021/05/12 04:47:59;;;;;;;24.07;19.30;;;;;;;;;;5074365;28;20679;-70
2021/05/12 04:50:44;;;;;;;21.53;19.33;;;;;;;;;;5073770;28;20201;-70
2021/05/12 04:53:28;;;;;;;21.93;18.87;;;;;;;;;;5074435;28;20320;-70
2021/05/12 04:56:13;;;;;;;23.80;19.37;;;;;;;;;;5074409;28;20201;-70
2021/05/12 04:58:58;;;;;;;23.17;18.63;;;;;;;;;;5074069;28;20208;-70
2021/05/12 05:01:42;;;;;;;21.70;18.53;;;;;;;;;;5073972;28;20240;-70
2021/05/12 05:04:27;;;;;;;24.10;19.17;;;;;;;;;;5074495;28;20205;-70
2021/05/12 05:07:11;;;;;;;22.83;19.73;;;;;;;;;;5073885;28;20270;-70
2021/05/12 05:10:00;;;;;;;24.13;19.27;;;;;;;;;;5073592;28;20608;-69
2021/05/12 05:12:45;;;;;;;22.50;18.47;;;;;;;;;;5073778;28;20253;-70
2021/05/12 05:15:30;;;;;;;23.60;19.80;;;;;;;;;;5073992;28;20600;-70
2021/05/12 05:18:16;;;;;;;21.37;19.07;;;;;;;;;;5073955;28;20226;-69
2021/05/12 05:21:04;;;;;;;23.43;19.90;;;;;;;;;;5073079;28;20198;-69
2021/05/12 05:24:03;;;;;;;26.70;24.00;;;;;;;;;;5072301;28;20422;-69
2021/05/12 05:26:50;;;;;;;23.33;20.83;;;;;;;;;;5073743;28;20694;-70
2021/05/12 05:29:35;;;;;;;22.93;20.07;;;;;;;;;;5073114;28;20681;-69
2021/05/12 05:32:21;;;;;;;22.57;20.13;;;;;;;;;;5073450;28;20246;-69
2021/05/12 05:35:06;;;;;;;26.47;20.93;;;;;;;;;;5073579;28;20280;-69
2021/05/12 05:37:51;;;;;;;24.27;19.93;;;;;;;;;;5074030;28;20223;-70
2021/05/12 05:40:35;;;;;;;22.00;19.67;;;;;;;;;;5072965;28;20249;-70
2021/05/12 05:43:19;;;;;;;23.03;20.43;;;;;;;;;;5072682;28;20253;-69
2021/05/12 05:46:05;;;;;;;22.20;19.90;;;;;;;;;;5073444;28;20223;-69
2021/05/12 05:48:50;;;;;;;22.87;20.23;;;;;;;;;;5073655;28;20568;-69
2021/05/12 05:51:35;;;;;;;25.53;21.10;;;;;;;;;;5072861;28;20250;-70
2021/05/12 05:54:19;;;;;;;22.80;20.10;;;;;;;;;;5072993;28;20279;-69
2021/05/12 05:57:05;;;;;;;23.93;21.37;;;;;;;;;;5073274;28;20476;-69
2021/05/12 05:59:49;;;;;;;24.47;21.83;;;;;;;;;;5072661;28;20200;-69
2021/05/12 06:02:35;;;;;;;25.70;23.20;;;;;;;;;;5072780;28;20247;-69
2021/05/12 06:05:21;;;;;;;24.50;21.93;;;;;;;;;;5073008;28;20215;-69
2021/05/12 06:08:05;;;;;;;24.37;22.07;;;;;;;;;;5072937;28;20219;-69
2021/05/12 06:10:50;;;;;;;25.55;22.88;;;;;;;;;;5072358;28;20423;-69
2021/05/12 06:13:35;;;;;;;27.80;24.97;;;;;;;;;;5072428;28;20230;-69
2021/05/12 06:16:21;;;;;;;29.57;26.43;;;;;;;;;;5072840;28;20204;-69
2021/05/12 06:19:06;;;;;;;29.07;25.93;;;;;;;;;;5073071;28;20208;-69
2021/05/12 06:21:51;;;;;;;26.97;24.27;;;;;;;;;;5072352;28;20621;-69
2021/05/12 06:24:43;;;;;;;25.33;22.43;;;;;;;;;;5072672;28;20659;-69
2021/05/12 06:27:30;;;;;;;21.03;18.40;;;;;;;;;;5072590;28;20212;-69
2021/05/12 06:30:17;;;;;;;21.40;18.00;;;;;;;;;;5060505;28;20212;-69
2021/05/12 06:33:02;;;;;;;17.93;14.90;;;;;;;;;;5052213;28;20273;-70
2021/05/12 06:35:46;;;;;;;14.73;12.13;;;;;;;;;;5057944;28;20571;-70
2021/05/12 06:38:33;;;;;;;14.50;11.17;;;;;;;;;;5066130;28;20633;-71
2021/05/12 06:41:18;;;;;;;18.37;11.87;;;;;;;;;;5071589;28;20208;-71
2021/05/12 06:44:03;;;;;;;16.25;11.45;;;;;;;;;;5070761;28;20403;-70
2021/05/12 06:46:48;;;;;;;13.03;10.73;;;;;;;;;;5072240;28;20200;-69
2021/05/12 06:49:32;;;;;;;14.77;9.93;;;;;;;;;;5057891;28;20236;-69
2021/05/12 06:52:17;;;;;;;13.87;10.03;;;;;;;;;;5055895;28;20293;-69
2021/05/12 06:55:03;;;;;;;14.17;11.53;;;;;;;;;;5071129;28;20200;-70
2021/05/12 06:57:47;;;;;;;16.57;11.77;;;;;;;;;;5071756;28;20252;-69
2021/05/12 07:00:32;;;;;;;13.17;11.67;;;;;;;;;;5071389;28;20606;-69
2021/05/12 07:03:17;;;;;;;14.57;11.20;;;;;;;;;;5071826;28;20711;-69
2021/05/12 07:06:02;;;;;;;10.97;9.87;;;;;;;;;;5067377;28;20199;-69
2021/05/12 07:08:50;;;;;;;13.70;11.23;;;;;;;;;;5051707;28;20216;-69
2021/05/12 07:11:36;;;;;;;11.93;10.70;;;;;;;;;;5050921;28;20212;-69
2021/05/12 07:14:21;;;;;;;13.97;10.77;;;;;;;;;;5051095;28;20231;-70
2021/05/12 07:17:07;;;;;;;14.27;11.67;;;;;;;;;;5051527;28;20266;-70
2021/05/12 07:19:52;;;;;;;12.33;9.60;;;;;;;;;;5051012;28;20243;-70
2021/05/12 07:22:36;;;;;;;11.37;9.37;;;;;;;;;;5051423;28;20290;-69
2021/05/12 07:25:21;;;;;;;11.83;10.27;;;;;;;;;;5051727;28;20208;-70
2021/05/12 07:28:06;;;;;;;11.80;10.60;;;;;;;;;;5051625;28;20229;-69
2021/05/12 07:30:51;;;;;;;14.18;10.90;;;;;;;;;;5050018;28;20864;-70
2021/05/12 07:33:35;;;;;;;13.93;9.57;;;;;;;;;;5051348;28;20241;-70
2021/05/12 07:36:20;;;;;;;12.73;8.30;;;;;;;;;;5051179;28;20691;-70
2021/05/12 07:39:05;;;;;;;11.70;7.40;;;;;;;;;;5051322;28;20715;-70
2021/05/12 07:41:51;;;;;;;9.10;5.00;;;;;;;;;;5064319;28;20227;-70
2021/05/12 07:44:37;;;;;;;9.27;5.30;;;;;;;;;;5067703;28;20244;-70
2021/05/12 07:47:21;;;;;;;8.30;6.17;;;;;;;;;;5051371;28;20291;-69
2021/05/12 07:50:07;;;;;;;11.77;8.10;;;;;;;;;;5061262;28;20296;-71
2021/05/12 07:52:52;;;;;;;9.10;5.97;;;;;;;;;;5070850;28;20316;-70
2021/05/12 07:55:37;;;;;;;8.33;5.57;;;;;;;;;;5070905;28;20225;-71
2021/05/12 07:58:25;;;;;;;9.00;5.03;;;;;;;;;;5070523;28;20650;-70
2021/05/12 08:01:18;;;;;;;8.57;5.00;;;;;;;;;;5070534;28;20212;-70
2021/05/12 08:04:03;;;;;;;10.77;6.30;;;;;;;;;;5070909;28;20224;-70
2021/05/12 08:06:47;;;;;;;9.33;5.77;;;;;;;;;;5070528;28;20276;-69
2021/05/12 08:09:32;;;;;;;10.23;6.17;;;;;;;;;;5066203;28;20715;-69
2021/05/12 08:12:16;;;;;;;9.27;6.43;;;;;;;;;;5057774;28;20270;-70
2021/05/12 08:15:00;;;;;;;9.13;6.23;;;;;;;;;;5054789;28;20209;-69
2021/05/12 08:17:48;;;;;;;9.20;6.20;;;;;;;;;;5055821;28;20340;-69
2021/05/12 08:20:32;;;;;;;10.73;7.07;;;;;;;;;;5070287;28;20223;-71
2021/05/12 08:23:17;;;;;;;9.80;6.30;;;;;;;;;;5070537;28;20275;-69
2021/05/12 08:26:01;;;;;;;8.67;6.93;;;;;;;;;;5068163;28;20699;-70
2021/05/12 08:28:49;;;;;;;8.93;5.90;;;;;;;;;;5059623;28;20250;-70
2021/05/12 08:31:37;;;;;;;8.97;5.10;;;;;;;;;;5060684;28;20292;-70
2021/05/12 08:34:23;;;;;;;9.35;5.75;;;;;;;;;;5049298;28;20798;-69
2021/05/12 08:37:07;;;;;;;9.33;4.87;;;;;;;;;;5050515;28;20290;-70
2021/05/12 08:39:52;;;;;;;7.63;4.63;;;;;;;;;;5049552;28;20237;-70
2021/05/12 08:42:38;;;;;;;8.93;4.73;;;;;;;;;;5051567;28;20242;-69
2021/05/12 08:45:23;;;;;;;10.33;4.73;;;;;;;;;;5068777;28;20197;-69
2021/05/12 08:48:12;;;;;;;6.70;4.27;;;;;;;;;;5053933;28;20781;-70
2021/05/12 08:50:57;;;;;;;10.60;5.10;;;;;;;;;;5049990;28;20209;-70
2021/05/12 08:53:42;;;;;;;12.27;5.30;;;;;;;;;;5049870;28;20279;-69
2021/05/12 08:56:29;;;;;;;12.40;4.67;;;;;;;;;;5054966;28;20208;-71
2021/05/12 08:59:14;;;;;;;9.30;4.83;;;;;;;;;;5049976;28;20514;-71
2021/05/12 09:02:04;;;;;;;9.37;4.30;;;;;;;;;;5066297;28;20275;-70
2021/05/12 09:04:48;;;;;;;10.83;4.73;;;;;;;;;;5068340;28;20706;-71
2021/05/12 09:07:34;;;;;;;8.53;4.30;;;;;;;;;;5070354;28;20258;-70
2021/05/12 09:10:19;;;;;;;9.77;4.33;;;;;;;;;;5053212;28;20249;-70
2021/05/12 09:13:06;;;;;;;10.10;4.30;;;;;;;;;;5049928;28;20221;-71
2021/05/12 09:15:51;;;;;;;7.93;4.43;;;;;;;;;;5049082;28;20417;-70
2021/05/12 09:18:43;;;;;;;7.00;3.40;;;;;;;;;;5051899;28;20994;-70
2021/05/12 09:21:46;;;;;;;9.83;3.73;;;;;;;;;;5069527;28;20805;-71
2021/05/12 09:24:35;;;;;;;10.07;3.30;;;;;;;;;;5072576;28;20200;-71
2021/05/12 09:27:23;;;;;;;8.33;3.20;;;;;;;;;;5073431;28;20284;-71
2021/05/12 09:30:08;;;;;;;7.57;2.97;;;;;;;;;;5071815;28;20201;-71
2021/05/12 09:32:58;;;;;;;5.90;2.90;;;;;;;;;;5072299;28;20236;-71
2021/05/12 09:35:45;;;;;;;8.37;3.20;;;;;;;;;;5057491;28;20688;-71
2021/05/12 09:38:33;;;;;;;6.43;2.90;;;;;;;;;;5054552;28;20207;-71
2021/05/12 09:41:22;;;;;;;9.17;3.27;;;;;;;;;;5064142;28;20519;-71
2021/05/12 09:44:08;;;;;;;6.50;3.13;;;;;;;;;;5071719;28;20679;-69
2021/05/12 09:46:52;;;;;;;8.40;2.80;;;;;;;;;;5054657;28;20205;-70
2021/05/12 09:49:42;;;;;;;6.80;2.67;;;;;;;;;;5052800;28;20201;-70
2021/05/12 09:52:28;;;;;;;7.40;2.60;;;;;;;;;;5065371;28;20221;-70
2021/05/12 09:55:13;;;;;;;6.63;2.80;;;;;;;;;;5053684;28;20217;-69
2021/05/12 09:58:00;;;;;;;6.60;2.87;;;;;;;;;;5055267;28;20422;-69
2021/05/12 10:00:47;;;;;;;9.20;2.70;;;;;;;;;;5071651;28;20626;-69
2021/05/12 10:03:32;;;;;;;7.80;2.53;;;;;;;;;;5067437;28;20197;-69
2021/05/12 10:06:21;;;;;;;7.73;3.07;;;;;;;;;;5062833;28;20576;-70
2021/05/12 10:09:16;;;;;;;13.13;2.97;;;;;;;;;;5066910;28;20205;-69
2021/05/12 10:12:07;;;;;;;10.30;3.33;;;;;;;;;;5053343;28;20583;-70
2021/05/12 10:14:55;;;;;;;9.83;3.20;;;;;;;;;;5057745;28;20594;-70
2021/05/12 10:17:41;;;;;;;9.60;3.13;;;;;;;;;;5052444;28;20248;-71
2021/05/12 10:20:25;;;;;;;10.50;3.10;;;;;;;;;;5061644;28;20203;-71
2021/05/12 10:23:10;;;;;;;8.67;2.97;;;;;;;;;;5064206;28;20228;-70
2021/05/12 10:25:55;;;;;;;10.77;3.40;;;;;;;;;;5072428;28;20259;-70
2021/05/12 10:28:40;;;;;;;9.13;3.40;;;;;;;;;;5068253;28;20205;-71
2021/05/12 10:31:33;;;;;;;8.17;3.30;;;;;;;;;;5070868;28;20588;-70
2021/05/12 10:34:18;;;;;;;9.43;3.43;;;;;;;;;;5072346;28;20221;-70
2021/05/12 10:37:16;;;;;;;11.35;3.40;;;;;;;;;;5071246;28;20406;-69
2021/05/12 10:40:04;;;;;;;6.53;2.93;;;;;;;;;;5054521;28;20213;-69
2021/05/12 10:42:53;;;;;;;8.90;3.57;;;;;;;;;;5051770;28;20253;-69
2021/05/12 10:45:54;;;;;;;7.30;3.03;;;;;;;;;;5051825;28;20217;-71
2021/05/12 10:48:40;;;;;;;7.80;2.80;;;;;;;;;;5064738;28;20198;-70
2021/05/12 10:51:31;;;;;;;7.90;3.35;;;;;;;;;;5054942;28;20485;-70
2021/05/12 10:54:35;;;;;;;8.20;3.20;;;;;;;;;;5067049;28;20229;-70
2021/05/12 10:57:39;;;;;;;8.80;3.00;;;;;;;;;;5066410;28;20212;-69
2021/05/12 11:00:25;;;;;;;3.73;2.30;;;;;;;;;;5056511;28;20202;-70
2021/05/12 11:03:10;;;;;;;3.67;1.90;;;;;;;;;;5069918;28;20294;-69
2021/05/12 11:06:01;;;;;;;6.93;2.60;;;;;;;;;;5069798;28;20253;-69
2021/05/12 11:09:07;;;;;;;6.20;2.50;;;;;;;;;;5070653;28;20288;-69
2021/05/12 11:11:55;;;;;;;3.83;1.87;;;;;;;;;;5070556;28;20223;-69
2021/05/12 11:14:40;;;;;;;2.67;1.67;;;;;;;;;;5071236;28;20652;-70
2021/05/12 11:17:39;;;;;;;7.50;2.50;;;;;;;;;;5071466;28;20203;-70
2021/05/12 11:20:25;;;;;;;6.57;2.30;;;;;;;;;;5067152;28;20203;-70
2021/05/12 11:23:14;;;;;;;6.73;2.30;;;;;;;;;;5069384;28;20274;-72
2021/05/12 11:26:22;;;;;;;8.07;2.70;;;;;;;;;;5067902;28;20591;-71
2021/05/12 11:31:08;;;;;;;5.77;2.70;;;;;;;;;;5061915;28;20288;-71
2021/05/12 11:32:12;;;;;;;4.90;2.70;;;;;;;;;;5062840;28;20299;-71
2021/05/12 11:34:56;;;;;;;6.70;2.70;;;;;;;;;;5070275;28;20316;-73
2021/05/12 11:37:44;;;;;;;6.03;2.70;;;;;;;;;;5071213;28;20210;-71
2021/05/12 11:40:30;;;;;;;6.80;3.13;;;;;;;;;;5069205;28;20923;-71
2021/05/12 11:43:17;;;;;;;6.00;2.80;;;;;;;;;;5071081;28;20218;-71
2021/05/12 11:46:11;;;;;;;6.73;2.73;;;;;;;;;;5071144;28;20758;-70
2021/05/12 11:48:56;;;;;;;6.13;2.77;;;;;;;;;;5071139;28;20565;-71
2021/05/12 11:51:43;;;;;;;5.70;2.30;;;;;;;;;;5070607;28;20308;-72
2021/05/12 11:54:28;;;;;;;6.80;2.77;;;;;;;;;;5070651;28;20239;-71
2021/05/12 11:57:14;;;;;;;5.50;2.83;;;;;;;;;;5071083;28;20198;-72
2021/05/12 12:00:03;;;;;;;6.43;3.10;;;;;;;;;;5070370;28;20610;-72
2021/05/12 12:02:57;;;;;;;6.83;3.07;;;;;;;;;;5070732;28;20282;-71
2021/05/12 12:05:49;;;;;;;6.20;3.10;;;;;;;;;;5071006;28;20245;-72
2021/05/12 12:08:34;;;;;;;7.37;3.13;;;;;;;;;;5070829;28;20309;-72
2021/05/12 12:11:19;;;;;;;6.23;2.87;;;;;;;;;;5070463;28;20703;-72
2021/05/12 12:14:07;;;;;;;6.80;2.70;;;;;;;;;;5070338;28;20447;-72
2021/05/12 12:16:51;;;;;;;5.47;2.73;;;;;;;;;;5070709;28;20298;-72
2021/05/12 12:19:36;;;;;;;6.00;2.63;;;;;;;;;;5070381;28;20224;-72
2021/05/12 12:22:21;;;;;;;7.97;3.03;;;;;;;;;;5070899;28;20348;-71
2021/05/12 12:25:11;;;;;;;6.97;2.90;;;;;;;;;;5071135;28;20200;-71
2021/05/12 12:27:56;;;;;;;5.13;2.97;;;;;;;;;;5070650;28;20280;-72
2021/05/12 12:30:43;;;;;;;6.63;3.00;;;;;;;;;;5069357;28;20419;-72
2021/05/12 12:33:31;;;;;;;8.30;2.93;;;;;;;;;;5070423;28;21020;-72
2021/05/12 12:36:15;;;;;;;7.57;3.00;;;;;;;;;;5070535;28;20216;-71
2021/05/12 12:39:02;;;;;;;7.80;2.87;;;;;;;;;;5070639;28;20200;-71
2021/05/12 12:41:48;;;;;;;8.20;2.97;;;;;;;;;;5070481;28;20220;-71
2021/05/12 12:44:33;;;;;;;7.17;3.00;;;;;;;;;;5070167;28;20197;-71
2021/05/12 12:47:19;;;;;;;6.07;2.73;;;;;;;;;;5070526;28;20267;-72
2021/05/12 12:50:05;;;;;;;10.97;4.10;;;;;;;;;;5070033;28;20715;-71
2021/05/12 12:52:49;;;;;;;8.40;4.63;;;;;;;;;;5071279;28;20708;-71
2021/05/12 12:55:38;;;;;;;10.67;4.30;;;;;;;;;;5074497;28;20718;-71
2021/05/12 12:58:25;;;;;;;10.50;3.73;;;;;;;;;;5074062;28;20291;-71
2021/05/12 13:01:12;;;;;;;8.47;3.37;;;;;;;;;;5073645;28;20228;-71
2021/05/12 13:04:11;;;;;;;7.80;3.40;;;;;;;;;;5074587;28;20197;-71
2021/05/12 13:07:03;;;;;;;9.20;3.70;;;;;;;;;;5074382;28;20240;-71
2021/05/12 13:09:48;;;;;;;7.60;3.10;;;;;;;;;;5073659;28;20197;-71
2021/05/12 13:12:38;;;;;;;8.73;3.03;;;;;;;;;;5073925;28;20749;-71
2021/05/12 13:15:24;;;;;;;8.53;3.50;;;;;;;;;;5074103;28;20236;-71
2021/05/12 13:18:09;;;;;;;7.97;3.30;;;;;;;;;;5070465;28;20413;-71
2021/05/12 13:20:54;;;;;;;9.60;3.10;;;;;;;;;;5058723;28;20221;-70
2021/05/12 13:23:39;;;;;;;6.17;2.77;;;;;;;;;;5066215;28;20554;-70
2021/05/12 13:26:27;;;;;;;5.87;2.70;;;;;;;;;;5063190;28;20263;-71
2021/05/12 13:29:13;;;;;;;7.47;3.27;;;;;;;;;;5064693;28;20205;-69
2021/05/12 13:31:59;;;;;;;5.87;2.80;;;;;;;;;;5071390;28;20232;-69
2021/05/12 13:34:44;;;;;;;7.37;3.20;;;;;;;;;;5069118;28;20250;-74
2021/05/12 13:37:29;;;;;;;7.63;3.20;;;;;;;;;;5068276;28;20209;-71
2021/05/12 13:40:14;;;;;;;9.33;3.50;;;;;;;;;;5063920;28;20221;-71
2021/05/12 13:43:02;;;;;;;5.53;2.57;;;;;;;;;;5067576;28;20224;-70
2021/05/12 13:45:51;;;;;;;6.27;2.80;;;;;;;;;;5069891;28;20208;-69
2021/05/12 13:48:35;;;;;;;6.27;2.80;;;;;;;;;;5071659;28;20252;-70
2021/05/12 13:51:20;;;;;;;7.87;3.20;;;;;;;;;;5072344;28;20592;-71
2021/05/12 13:54:12;;;;;;;7.43;3.30;;;;;;;;;;5072928;28;20214;-70
2021/05/12 13:57:01;;;;;;;6.40;2.70;;;;;;;;;;5073068;28;20563;-70
2021/05/12 14:02:52;;;;;;;6.60;3.00;;;;;;;;;;5072138;28;20250;-71
2021/05/12 14:05:39;;;;;;;7.68;2.97;;;;;;;;;;5062302;28;20410;-70
2021/05/12 14:08:29;;;;;;;8.63;2.87;;;;;;;;;;5065758;28;20662;-71
2021/05/12 14:11:21;;;;;;;8.50;2.90;;;;;;;;;;5072250;28;20754;-70
2021/05/12 14:14:08;;;;;;;9.40;2.90;;;;;;;;;;5057164;28;20280;-69
2021/05/12 14:17:05;;;;;;;7.50;2.90;;;;;;;;;;5058413;28;20461;-70
2021/05/12 14:19:50;;;;;;;7.27;2.90;;;;;;;;;;5071481;28;20197;-70
2021/05/12 14:22:34;;;;;;;9.43;3.20;;;;;;;;;;5063966;28;20202;-70
2021/05/12 14:25:19;;;;;;;8.57;2.90;;;;;;;;;;5052570;28;20579;-70
2021/05/12 14:28:05;;;;;;;4.57;2.80;;;;;;;;;;5052689;28;20231;-70
2021/05/12 14:30:52;;;;;;;6.77;3.07;;;;;;;;;;5051579;28;20223;-70
2021/05/12 14:33:37;;;;;;;6.40;3.03;;;;;;;;;;5052330;28;20261;-70
2021/05/12 14:36:24;;;;;;;7.87;3.20;;;;;;;;;;5065830;28;20203;-70
2021/05/12 14:39:15;;;;;;;6.90;3.33;;;;;;;;;;5051164;28;20919;-68
2021/05/12 14:42:01;;;;;;;8.43;2.70;;;;;;;;;;5064320;28;20414;-68
2021/05/12 14:44:46;;;;;;;6.50;3.60;;;;;;;;;;5070380;28;20231;-68
2021/05/12 14:47:31;;;;;;;6.00;3.20;;;;;;;;;;5063660;28;20230;-68
2021/05/12 14:50:16;;;;;;;7.07;2.90;;;;;;;;;;5051755;28;20234;-70
2021/05/12 14:53:08;;;;;;;6.53;2.63;;;;;;;;;;5051905;28;20201;-69
2021/05/12 14:56:11;;;;;;;5.90;2.63;;;;;;;;;;5053143;28;20252;-69
2021/05/12 14:59:30;;;;;;;6.33;2.87;;;;;;;;;;5051867;28;20197;-69
2021/05/12 15:08:32;;;;;;;5.87;2.30;;;;;;;;;;5051719;28;20192;-69
2021/05/12 15:11:19;;;;;;;5.30;2.67;;;;;;;;;;5051068;28;20282;-69
2021/05/12 15:14:07;;;;;;;4.13;2.20;;;;;;;;;;5052735;28;20235;-69
2021/05/12 15:16:51;;;;;;;5.30;2.43;;;;;;;;;;5062455;28;20242;-69
2021/05/12 15:19:36;;;;;;;4.10;2.20;;;;;;;;;;5056726;28;20212;-69
2021/05/12 15:22:22;;;;;;;5.70;2.30;;;;;;;;;;5062101;28;20314;-69
2021/05/12 15:25:15;;;;;;;4.63;2.13;;;;;;;;;;5052476;28;20260;-72
2021/05/12 15:28:00;;;;;;;4.97;2.60;;;;;;;;;;5066338;28;20435;-71
2021/05/12 15:30:44;;;;;;;4.50;1.97;;;;;;;;;;5051665;28;20221;-70
2021/05/12 15:33:29;;;;;;;5.53;2.10;;;;;;;;;;5051213;28;20295;-70
2021/05/12 15:36:16;;;;;;;4.00;2.30;;;;;;;;;;5051396;28;20595;-69
2021/05/12 15:39:03;;;;;;;5.63;2.53;;;;;;;;;;5051306;28;20202;-71
2021/05/12 15:41:48;;;;;;;7.50;2.70;;;;;;;;;;5057890;28;20770;-70
2021/05/12 15:44:33;;;;;;;5.57;2.67;;;;;;;;;;5069935;28;20782;-70
2021/05/12 15:47:17;;;;;;;6.03;2.70;;;;;;;;;;5071053;28;20253;-70
2021/05/12 15:50:02;;;;;;;4.77;2.80;;;;;;;;;;5070309;28;20226;-70
2021/05/12 15:52:49;;;;;;;10.10;5.40;;;;;;;;;;5070777;28;20333;-70
2021/05/12 15:55:38;;;;;;;5.37;3.30;;;;;;;;;;5070622;28;20214;-70
2021/05/12 15:58:22;;;;;;;6.97;2.70;;;;;;;;;;5070470;28;20207;-71
2021/05/12 16:01:07;;;;;;;6.90;2.50;;;;;;;;;;5065332;28;20229;-70
2021/05/12 16:03:52;;;;;;;8.00;3.47;;;;;;;;;;5050703;28;20208;-69
2021/05/12 16:06:36;;;;;;;5.83;2.70;;;;;;;;;;5050732;28;20612;-69
2021/05/12 16:09:24;;;;;;;6.50;2.97;;;;;;;;;;5050036;28;20698;-69
2021/05/12 16:12:12;;;;;;;4.90;2.57;;;;;;;;;;5050682;28;20252;-70
2021/05/12 16:14:58;;;;;;;7.87;2.53;;;;;;;;;;5050249;28;20231;-70
2021/05/12 16:17:44;;;;;;;7.50;3.20;;;;;;;;;;5064131;28;20693;-70
2021/05/12 16:20:29;;;;;;;6.20;2.80;;;;;;;;;;5058261;28;20276;-70
2021/05/12 16:23:14;;;;;;;7.17;3.10;;;;;;;;;;5070358;28;20382;-70
2021/05/12 16:25:59;;;;;;;7.60;3.10;;;;;;;;;;5071202;28;20209;-70
2021/05/12 16:28:46;;;;;;;6.17;2.90;;;;;;;;;;5077056;28;20720;-69
2021/05/12 16:31:31;;;;;;;6.43;3.20;;;;;;;;;;5075622;28;20464;-69
2021/05/12 16:34:16;;;;;;;6.30;3.23;;;;;;;;;;5076721;28;20263;-68
2021/05/12 16:37:02;;;;;;;6.13;2.90;;;;;;;;;;5076678;28;20204;-69
2021/05/12 16:39:47;;;;;;;7.17;3.60;;;;;;;;;;5066568;28;20354;-69